sensor_id;sensor_type;location;lat;lon;timestamp;P1;durP1;ratioP1;P2;durP2;ratioP2
5458;SDS011;2752;49.992;8.422;2023-02-01T00:00:31;8.43;;;2.70;;
5458;SDS011;2752;49.992;8.422;2023-02-01T00:02:59;3.70;;;2.67;;
5458;SDS011;2752;49.992;8.422;2023-02-01T00:05:26;3.60;;;2.53;;
5458;SDS011;2752;49.992;8.422;2023-02-01T00:07:53;4.33;;;3.33;;
5458;SDS011;2752;49.992;8.422;2023-02-01T00:10:19;3.73;;;2.90;;
5458;SDS011;2752;49.992;8.422;2023-02-01T00:12:46;4.20;;;2.90;;
5458;SDS011;2752;49.992;8.422;2023-02-01T00:15:15;4.33;;;2.60;;
5458;SDS011;2752;49.992;8.422;2023-02-01T00:17:42;5.57;;;3.40;;
5458;SDS011;2752;49.992;8.422;2023-02-01T00:20:09;3.77;;;2.50;;
5458;SDS011;2752;49.992;8.422;2023-02-01T00:22:36;3.93;;;3.23;;
5458;SDS011;2752;49.992;8.422;2023-02-01T00:25:04;4.13;;;2.60;;
5458;SDS011;2752;49.992;8.422;2023-02-01T00:27:32;3.47;;;2.53;;
5458;SDS011;2752;49.992;8.422;2023-02-01T00:29:59;4.27;;;3.10;;
5458;SDS011;2752;49.992;8.422;2023-02-01T00:32:27;4.63;;;3.23;;
5458;SDS011;2752;49.992;8.422;2023-02-01T00:34:54;5.73;;;3.33;;
5458;SDS011;2752;49.992;8.422;2023-02-01T00:37:21;9.80;;;3.70;;
5458;SDS011;2752;49.992;8.422;2023-02-01T00:39:48;11.97;;;3.83;;
5458;SDS011;2752;49.992;8.422;2023-02-01T00:42:15;10.37;;;4.20;;
5458;SDS011;2752;49.992;8.422;2023-02-01T00:44:42;9.60;;;4.00;;
5458;SDS011;2752;49.992;8.422;2023-02-01T00:47:09;9.83;;;3.43;;
5458;SDS011;2752;49.992;8.422;2023-02-01T00:49:37;7.53;;;3.43;;
5458;SDS011;2752;49.992;8.422;2023-02-01T00:52:04;8.70;;;3.20;;
5458;SDS011;2752;49.992;8.422;2023-02-01T00:54:31;5.27;;;4.20;;
5458;SDS011;2752;49.992;8.422;2023-02-01T00:56:59;6.70;;;4.33;;
5458;SDS011;2752;49.992;8.422;2023-02-01T00:59:26;9.23;;;4.10;;
5458;SDS011;2752;49.992;8.422;2023-02-01T01:01:53;8.67;;;4.47;;
5458;SDS011;2752;49.992;8.422;2023-02-01T01:04:20;6.30;;;4.40;;
5458;SDS011;2752;49.992;8.422;2023-02-01T01:06:48;6.30;;;4.00;;
5458;SDS011;2752;49.992;8.422;2023-02-01T01:09:14;6.50;;;3.83;;
5458;SDS011;2752;49.992;8.422;2023-02-01T01:11:41;6.37;;;3.80;;
5458;SDS011;2752;49.992;8.422;2023-02-01T01:14:08;5.30;;;2.27;;
5458;SDS011;2752;49.992;8.422;2023-02-01T01:16:37;4.80;;;3.40;;
5458;SDS011;2752;49.992;8.422;2023-02-01T01:19:04;4.60;;;3.50;;
5458;SDS011;2752;49.992;8.422;2023-02-01T01:21:31;9.23;;;3.83;;
5458;SDS011;2752;49.992;8.422;2023-02-01T01:24:00;7.50;;;4.00;;
5458;SDS011;2752;49.992;8.422;2023-02-01T01:26:27;8.60;;;5.17;;
5458;SDS011;2752;49.992;8.422;2023-02-01T01:28:58;12.33;;;4.47;;
5458;SDS011;2752;49.992;8.422;2023-02-01T01:31:25;5.50;;;4.00;;
5458;SDS011;2752;49.992;8.422;2023-02-01T01:33:53;10.00;;;3.90;;
5458;SDS011;2752;49.992;8.422;2023-02-01T01:36:21;7.83;;;4.20;;
5458;SDS011;2752;49.992;8.422;2023-02-01T01:38:49;11.90;;;4.70;;
5458;SDS011;2752;49.992;8.422;2023-02-01T01:41:18;8.73;;;4.07;;
5458;SDS011;2752;49.992;8.422;2023-02-01T01:43:54;5.97;;;3.90;;
5458;SDS011;2752;49.992;8.422;2023-02-01T01:46:22;9.17;;;4.30;;
5458;SDS011;2752;49.992;8.422;2023-02-01T01:48:53;9.10;;;4.30;;
5458;SDS011;2752;49.992;8.422;2023-02-01T01:51:25;6.90;;;4.47;;
5458;SDS011;2752;49.992;8.422;2023-02-01T01:53:57;9.80;;;5.10;;
5458;SDS011;2752;49.992;8.422;2023-02-01T01:56:32;6.30;;;4.20;;
5458;SDS011;2752;49.992;8.422;2023-02-01T01:59:01;11.17;;;4.43;;
5458;SDS011;2752;49.992;8.422;2023-02-01T02:01:30;9.63;;;4.73;;
5458;SDS011;2752;49.992;8.422;2023-02-01T02:03:57;8.60;;;4.57;;
5458;SDS011;2752;49.992;8.422;2023-02-01T02:06:27;6.60;;;4.93;;
5458;SDS011;2752;49.992;8.422;2023-02-01T02:09:02;11.30;;;5.33;;
5458;SDS011;2752;49.992;8.422;2023-02-01T02:11:32;8.97;;;4.83;;
5458;SDS011;2752;49.992;8.422;2023-02-01T02:13:59;12.40;;;5.57;;
5458;SDS011;2752;49.992;8.422;2023-02-01T02:16:43;8.93;;;5.03;;
5458;SDS011;2752;49.992;8.422;2023-02-01T02:19:24;8.17;;;4.90;;
5458;SDS011;2752;49.992;8.422;2023-02-01T02:22:19;16.13;;;5.10;;
5458;SDS011;2752;49.992;8.422;2023-02-01T02:25:26;9.23;;;5.60;;
5458;SDS011;2752;49.992;8.422;2023-02-01T02:28:24;9.43;;;4.33;;
5458;SDS011;2752;49.992;8.422;2023-02-01T02:31:17;12.53;;;5.53;;
5458;SDS011;2752;49.992;8.422;2023-02-01T02:33:57;8.00;;;5.33;;
5458;SDS011;2752;49.992;8.422;2023-02-01T02:36:35;7.87;;;5.30;;
5458;SDS011;2752;49.992;8.422;2023-02-01T02:39:08;7.80;;;5.53;;
5458;SDS011;2752;49.992;8.422;2023-02-01T02:41:47;10.40;;;5.10;;
5458;SDS011;2752;49.992;8.422;2023-02-01T02:44:37;17.73;;;6.57;;
5458;SDS011;2752;49.992;8.422;2023-02-01T02:47:32;11.93;;;4.43;;
5458;SDS011;2752;49.992;8.422;2023-02-01T02:50:06;9.60;;;4.27;;
5458;SDS011;2752;49.992;8.422;2023-02-01T02:53:00;12.37;;;4.97;;
5458;SDS011;2752;49.992;8.422;2023-02-01T02:55:47;9.10;;;5.07;;
5458;SDS011;2752;49.992;8.422;2023-02-01T02:58:16;9.07;;;5.40;;
5458;SDS011;2752;49.992;8.422;2023-02-01T03:01:01;8.63;;;5.40;;
5458;SDS011;2752;49.992;8.422;2023-02-01T03:03:47;8.73;;;4.93;;
5458;SDS011;2752;49.992;8.422;2023-02-01T03:06:36;11.90;;;6.40;;
5458;SDS011;2752;49.992;8.422;2023-02-01T03:09:05;7.57;;;5.00;;
5458;SDS011;2752;49.992;8.422;2023-02-01T03:11:37;9.47;;;5.70;;
5458;SDS011;2752;49.992;8.422;2023-02-01T03:14:24;10.40;;;5.23;;
5458;SDS011;2752;49.992;8.422;2023-02-01T03:16:54;10.40;;;5.13;;
5458;SDS011;2752;49.992;8.422;2023-02-01T03:19:31;10.33;;;5.60;;
5458;SDS011;2752;49.992;8.422;2023-02-01T03:22:02;8.33;;;5.10;;
5458;SDS011;2752;49.992;8.422;2023-02-01T03:24:32;8.90;;;5.50;;
5458;SDS011;2752;49.992;8.422;2023-02-01T03:27:04;10.50;;;5.20;;
5458;SDS011;2752;49.992;8.422;2023-02-01T03:29:37;9.83;;;4.97;;
5458;SDS011;2752;49.992;8.422;2023-02-01T03:32:07;11.47;;;6.10;;
5458;SDS011;2752;49.992;8.422;2023-02-01T03:34:35;8.53;;;4.80;;
5458;SDS011;2752;49.992;8.422;2023-02-01T03:37:04;12.67;;;5.53;;
5458;SDS011;2752;49.992;8.422;2023-02-01T03:39:34;12.10;;;4.77;;
5458;SDS011;2752;49.992;8.422;2023-02-01T03:42:05;11.53;;;5.03;;
5458;SDS011;2752;49.992;8.422;2023-02-01T03:44:37;8.50;;;5.20;;
5458;SDS011;2752;49.992;8.422;2023-02-01T03:47:10;10.40;;;4.63;;
5458;SDS011;2752;49.992;8.422;2023-02-01T03:49:45;9.23;;;5.50;;
5458;SDS011;2752;49.992;8.422;2023-02-01T03:52:17;11.00;;;5.03;;
5458;SDS011;2752;49.992;8.422;2023-02-01T03:54:48;9.30;;;5.10;;
5458;SDS011;2752;49.992;8.422;2023-02-01T03:57:16;9.97;;;5.40;;
5458;SDS011;2752;49.992;8.422;2023-02-01T03:59:49;12.27;;;5.60;;
5458;SDS011;2752;49.992;8.422;2023-02-01T04:02:18;10.20;;;5.20;;
5458;SDS011;2752;49.992;8.422;2023-02-01T04:04:46;8.30;;;5.27;;
5458;SDS011;2752;49.992;8.422;2023-02-01T04:07:17;7.07;;;5.00;;
5458;SDS011;2752;49.992;8.422;2023-02-01T04:09:45;8.10;;;4.80;;
5458;SDS011;2752;49.992;8.422;2023-02-01T04:12:14;7.53;;;5.20;;
5458;SDS011;2752;49.992;8.422;2023-02-01T04:14:41;9.20;;;4.80;;
5458;SDS011;2752;49.992;8.422;2023-02-01T04:17:09;8.23;;;4.60;;
5458;SDS011;2752;49.992;8.422;2023-02-01T04:19:40;11.63;;;5.43;;
5458;SDS011;2752;49.992;8.422;2023-02-01T04:22:07;10.60;;;4.37;;
5458;SDS011;2752;49.992;8.422;2023-02-01T04:24:36;7.07;;;4.27;;
5458;SDS011;2752;49.992;8.422;2023-02-01T04:27:03;8.10;;;4.37;;
5458;SDS011;2752;49.992;8.422;2023-02-01T04:29:29;9.17;;;5.00;;
5458;SDS011;2752;49.992;8.422;2023-02-01T04:31:56;6.83;;;4.40;;
5458;SDS011;2752;49.992;8.422;2023-02-01T04:34:23;8.77;;;4.33;;
5458;SDS011;2752;49.992;8.422;2023-02-01T04:36:51;9.87;;;4.63;;
5458;SDS011;2752;49.992;8.422;2023-02-01T04:39:18;8.90;;;4.03;;
5458;SDS011;2752;49.992;8.422;2023-02-01T04:41:46;11.33;;;5.40;;
5458;SDS011;2752;49.992;8.422;2023-02-01T04:44:14;9.43;;;4.20;;
5458;SDS011;2752;49.992;8.422;2023-02-01T04:46:42;11.63;;;4.50;;
5458;SDS011;2752;49.992;8.422;2023-02-01T04:49:10;9.47;;;3.97;;
5458;SDS011;2752;49.992;8.422;2023-02-01T04:51:38;15.20;;;4.97;;
5458;SDS011;2752;49.992;8.422;2023-02-01T04:54:06;7.17;;;3.90;;
5458;SDS011;2752;49.992;8.422;2023-02-01T04:56:33;7.10;;;4.10;;
5458;SDS011;2752;49.992;8.422;2023-02-01T04:59:02;8.37;;;4.27;;
5458;SDS011;2752;49.992;8.422;2023-02-01T05:01:29;12.90;;;3.93;;
5458;SDS011;2752;49.992;8.422;2023-02-01T05:03:56;7.30;;;3.47;;
5458;SDS011;2752;49.992;8.422;2023-02-01T05:06:23;17.33;;;3.87;;
5458;SDS011;2752;49.992;8.422;2023-02-01T05:08:50;8.00;;;4.00;;
5458;SDS011;2752;49.992;8.422;2023-02-01T05:11:18;8.87;;;4.60;;
5458;SDS011;2752;49.992;8.422;2023-02-01T05:14:04;10.67;;;5.80;;
5458;SDS011;2752;49.992;8.422;2023-02-01T05:16:30;13.77;;;4.80;;
5458;SDS011;2752;49.992;8.422;2023-02-01T05:18:57;7.10;;;3.67;;
5458;SDS011;2752;49.992;8.422;2023-02-01T05:21:24;15.67;;;4.47;;
5458;SDS011;2752;49.992;8.422;2023-02-01T05:23:51;13.87;;;4.07;;
5458;SDS011;2752;49.992;8.422;2023-02-01T05:26:38;21.40;;;4.67;;
5458;SDS011;2752;49.992;8.422;2023-02-01T05:29:07;12.90;;;4.47;;
5458;SDS011;2752;49.992;8.422;2023-02-01T05:31:36;19.70;;;4.20;;
5458;SDS011;2752;49.992;8.422;2023-02-01T05:34:04;12.27;;;4.23;;
5458;SDS011;2752;49.992;8.422;2023-02-01T05:36:31;6.63;;;3.03;;
5458;SDS011;2752;49.992;8.422;2023-02-01T05:38:58;11.77;;;3.90;;
5458;SDS011;2752;49.992;8.422;2023-02-01T05:41:25;11.50;;;3.30;;
5458;SDS011;2752;49.992;8.422;2023-02-01T05:43:52;10.53;;;3.40;;
5458;SDS011;2752;49.992;8.422;2023-02-01T05:46:22;12.10;;;3.70;;
5458;SDS011;2752;49.992;8.422;2023-02-01T05:48:49;17.77;;;4.20;;
5458;SDS011;2752;49.992;8.422;2023-02-01T05:51:15;8.13;;;2.53;;
5458;SDS011;2752;49.992;8.422;2023-02-01T05:53:42;7.97;;;3.37;;
5458;SDS011;2752;49.992;8.422;2023-02-01T05:56:09;4.03;;;2.40;;
5458;SDS011;2752;49.992;8.422;2023-02-01T05:58:36;4.10;;;1.90;;
5458;SDS011;2752;49.992;8.422;2023-02-01T06:01:04;3.90;;;1.90;;
5458;SDS011;2752;49.992;8.422;2023-02-01T06:03:32;12.90;;;2.63;;
5458;SDS011;2752;49.992;8.422;2023-02-01T06:05:59;7.23;;;1.90;;
5458;SDS011;2752;49.992;8.422;2023-02-01T06:08:26;7.20;;;2.03;;
5458;SDS011;2752;49.992;8.422;2023-02-01T06:10:58;8.83;;;2.23;;
5458;SDS011;2752;49.992;8.422;2023-02-01T06:13:26;4.33;;;2.00;;
5458;SDS011;2752;49.992;8.422;2023-02-01T06:15:53;5.30;;;2.00;;
5458;SDS011;2752;49.992;8.422;2023-02-01T06:18:20;9.30;;;3.67;;
5458;SDS011;2752;49.992;8.422;2023-02-01T06:20:53;23.10;;;11.13;;
5458;SDS011;2752;49.992;8.422;2023-02-01T06:23:20;11.30;;;6.27;;
5458;SDS011;2752;49.992;8.422;2023-02-01T06:25:49;15.30;;;4.47;;
5458;SDS011;2752;49.992;8.422;2023-02-01T06:28:16;8.27;;;5.00;;
5458;SDS011;2752;49.992;8.422;2023-02-01T06:30:43;17.90;;;10.23;;
5458;SDS011;2752;49.992;8.422;2023-02-01T06:33:11;10.63;;;3.90;;
5458;SDS011;2752;49.992;8.422;2023-02-01T06:35:39;12.33;;;5.67;;
5458;SDS011;2752;49.992;8.422;2023-02-01T06:38:08;11.67;;;4.03;;
5458;SDS011;2752;49.992;8.422;2023-02-01T06:40:35;7.90;;;3.47;;
5458;SDS011;2752;49.992;8.422;2023-02-01T06:43:03;14.37;;;3.00;;
5458;SDS011;2752;49.992;8.422;2023-02-01T06:45:30;4.83;;;2.17;;
5458;SDS011;2752;49.992;8.422;2023-02-01T06:47:59;12.53;;;3.57;;
5458;SDS011;2752;49.992;8.422;2023-02-01T06:50:26;13.90;;;3.50;;
5458;SDS011;2752;49.992;8.422;2023-02-01T06:52:53;16.77;;;2.80;;
5458;SDS011;2752;49.992;8.422;2023-02-01T06:55:22;11.63;;;3.03;;
5458;SDS011;2752;49.992;8.422;2023-02-01T06:57:52;22.10;;;4.00;;
5458;SDS011;2752;49.992;8.422;2023-02-01T07:00:19;15.40;;;3.50;;
5458;SDS011;2752;49.992;8.422;2023-02-01T07:02:47;11.07;;;2.60;;
5458;SDS011;2752;49.992;8.422;2023-02-01T07:05:16;10.20;;;3.27;;
5458;SDS011;2752;49.992;8.422;2023-02-01T07:07:43;8.20;;;2.20;;
5458;SDS011;2752;49.992;8.422;2023-02-01T07:10:11;15.70;;;3.50;;
5458;SDS011;2752;49.992;8.422;2023-02-01T07:12:39;9.77;;;2.43;;
5458;SDS011;2752;49.992;8.422;2023-02-01T07:15:07;10.10;;;2.83;;
5458;SDS011;2752;49.992;8.422;2023-02-01T07:17:35;16.83;;;2.97;;
5458;SDS011;2752;49.992;8.422;2023-02-01T07:20:04;17.10;;;3.00;;
5458;SDS011;2752;49.992;8.422;2023-02-01T07:22:33;8.47;;;4.00;;
5458;SDS011;2752;49.992;8.422;2023-02-01T07:25:00;10.80;;;3.13;;
5458;SDS011;2752;49.992;8.422;2023-02-01T07:27:27;10.30;;;3.10;;
5458;SDS011;2752;49.992;8.422;2023-02-01T07:29:57;10.60;;;2.60;;
5458;SDS011;2752;49.992;8.422;2023-02-01T07:32:27;10.83;;;3.07;;
5458;SDS011;2752;49.992;8.422;2023-02-01T07:34:54;7.77;;;2.50;;
5458;SDS011;2752;49.992;8.422;2023-02-01T07:37:21;14.83;;;3.50;;
5458;SDS011;2752;49.992;8.422;2023-02-01T07:39:49;11.83;;;2.80;;
5458;SDS011;2752;49.992;8.422;2023-02-01T07:42:16;13.53;;;2.33;;
5458;SDS011;2752;49.992;8.422;2023-02-01T07:44:43;8.27;;;2.50;;
5458;SDS011;2752;49.992;8.422;2023-02-01T07:47:12;14.80;;;2.70;;
5458;SDS011;2752;49.992;8.422;2023-02-01T07:49:38;6.10;;;2.23;;
5458;SDS011;2752;49.992;8.422;2023-02-01T07:52:05;13.80;;;3.50;;
5458;SDS011;2752;49.992;8.422;2023-02-01T07:54:32;8.70;;;3.10;;
5458;SDS011;2752;49.992;8.422;2023-02-01T07:56:59;13.73;;;3.30;;
5458;SDS011;2752;49.992;8.422;2023-02-01T07:59:26;13.73;;;3.47;;
5458;SDS011;2752;49.992;8.422;2023-02-01T08:01:53;14.70;;;2.63;;
5458;SDS011;2752;49.992;8.422;2023-02-01T08:04:21;19.00;;;4.77;;
5458;SDS011;2752;49.992;8.422;2023-02-01T08:06:48;16.13;;;2.40;;
5458;SDS011;2752;49.992;8.422;2023-02-01T08:09:16;19.00;;;3.43;;
5458;SDS011;2752;49.992;8.422;2023-02-01T08:11:43;17.07;;;1.93;;
5458;SDS011;2752;49.992;8.422;2023-02-01T08:14:09;6.67;;;3.13;;
5458;SDS011;2752;49.992;8.422;2023-02-01T08:16:37;8.93;;;2.07;;
5458;SDS011;2752;49.992;8.422;2023-02-01T08:19:04;11.03;;;2.57;;
5458;SDS011;2752;49.992;8.422;2023-02-01T08:21:32;8.63;;;2.10;;
5458;SDS011;2752;49.992;8.422;2023-02-01T08:24:03;4.37;;;1.90;;
5458;SDS011;2752;49.992;8.422;2023-02-01T08:26:30;10.90;;;2.80;;
5458;SDS011;2752;49.992;8.422;2023-02-01T08:28:59;5.53;;;2.30;;
5458;SDS011;2752;49.992;8.422;2023-02-01T08:31:28;10.10;;;2.60;;
5458;SDS011;2752;49.992;8.422;2023-02-01T08:33:56;17.17;;;2.47;;
5458;SDS011;2752;49.992;8.422;2023-02-01T08:36:25;6.13;;;2.17;;
5458;SDS011;2752;49.992;8.422;2023-02-01T08:38:54;6.43;;;1.80;;
5458;SDS011;2752;49.992;8.422;2023-02-01T08:41:22;13.90;;;4.30;;
5458;SDS011;2752;49.992;8.422;2023-02-01T08:43:53;17.07;;;2.07;;
5458;SDS011;2752;49.992;8.422;2023-02-01T08:46:20;9.73;;;3.30;;
5458;SDS011;2752;49.992;8.422;2023-02-01T08:48:48;13.60;;;2.40;;
5458;SDS011;2752;49.992;8.422;2023-02-01T08:51:17;14.20;;;2.97;;
5458;SDS011;2752;49.992;8.422;2023-02-01T08:53:45;6.67;;;2.40;;
5458;SDS011;2752;49.992;8.422;2023-02-01T08:56:15;6.20;;;1.67;;
5458;SDS011;2752;49.992;8.422;2023-02-01T08:58:43;5.70;;;2.23;;
5458;SDS011;2752;49.992;8.422;2023-02-01T09:01:10;14.63;;;2.50;;
5458;SDS011;2752;49.992;8.422;2023-02-01T09:03:39;9.03;;;2.00;;
5458;SDS011;2752;49.992;8.422;2023-02-01T09:06:07;5.43;;;1.33;;
5458;SDS011;2752;49.992;8.422;2023-02-01T09:08:36;20.07;;;2.93;;
5458;SDS011;2752;49.992;8.422;2023-02-01T09:11:05;15.33;;;2.30;;
5458;SDS011;2752;49.992;8.422;2023-02-01T09:13:35;7.13;;;2.20;;
5458;SDS011;2752;49.992;8.422;2023-02-01T09:16:02;16.07;;;3.13;;
5458;SDS011;2752;49.992;8.422;2023-02-01T09:18:29;13.47;;;2.93;;
5458;SDS011;2752;49.992;8.422;2023-02-01T09:20:56;7.90;;;2.10;;
5458;SDS011;2752;49.992;8.422;2023-02-01T09:23:23;5.63;;;1.97;;
5458;SDS011;2752;49.992;8.422;2023-02-01T09:25:50;10.50;;;2.70;;
5458;SDS011;2752;49.992;8.422;2023-02-01T09:28:17;7.50;;;2.13;;
5458;SDS011;2752;49.992;8.422;2023-02-01T09:30:46;9.23;;;2.67;;
5458;SDS011;2752;49.992;8.422;2023-02-01T09:33:13;11.77;;;2.63;;
5458;SDS011;2752;49.992;8.422;2023-02-01T09:35:39;4.47;;;1.83;;
5458;SDS011;2752;49.992;8.422;2023-02-01T09:38:06;4.60;;;1.57;;
5458;SDS011;2752;49.992;8.422;2023-02-01T09:40:33;7.97;;;1.83;;
5458;SDS011;2752;49.992;8.422;2023-02-01T09:43:06;14.30;;;3.10;;
5458;SDS011;2752;49.992;8.422;2023-02-01T09:45:44;8.70;;;2.00;;
5458;SDS011;2752;49.992;8.422;2023-02-01T09:48:19;5.63;;;1.83;;
5458;SDS011;2752;49.992;8.422;2023-02-01T09:50:50;3.23;;;1.17;;
5458;SDS011;2752;49.992;8.422;2023-02-01T09:53:21;8.97;;;2.00;;
5458;SDS011;2752;49.992;8.422;2023-02-01T09:55:53;12.07;;;2.63;;
5458;SDS011;2752;49.992;8.422;2023-02-01T09:58:27;17.47;;;2.20;;
5458;SDS011;2752;49.992;8.422;2023-02-01T10:01:01;7.40;;;2.27;;
5458;SDS011;2752;49.992;8.422;2023-02-01T10:03:30;14.53;;;1.70;;
5458;SDS011;2752;49.992;8.422;2023-02-01T10:06:03;11.20;;;2.10;;
5458;SDS011;2752;49.992;8.422;2023-02-01T10:08:43;8.00;;;1.53;;
5458;SDS011;2752;49.992;8.422;2023-02-01T10:11:42;10.87;;;2.70;;
5458;SDS011;2752;49.992;8.422;2023-02-01T10:14:28;7.40;;;2.13;;
5458;SDS011;2752;49.992;8.422;2023-02-01T10:17:10;19.37;;;2.70;;
5458;SDS011;2752;49.992;8.422;2023-02-01T10:19:48;6.13;;;1.90;;
5458;SDS011;2752;49.992;8.422;2023-02-01T10:22:24;11.53;;;1.90;;
5458;SDS011;2752;49.992;8.422;2023-02-01T10:25:00;4.83;;;1.90;;
5458;SDS011;2752;49.992;8.422;2023-02-01T10:27:35;8.57;;;2.70;;
5458;SDS011;2752;49.992;8.422;2023-02-01T10:30:09;11.27;;;2.53;;
5458;SDS011;2752;49.992;8.422;2023-02-01T10:32:44;17.60;;;2.53;;
5458;SDS011;2752;49.992;8.422;2023-02-01T10:35:14;13.07;;;3.30;;
5458;SDS011;2752;49.992;8.422;2023-02-01T10:37:43;11.43;;;2.40;;
5458;SDS011;2752;49.992;8.422;2023-02-01T10:40:16;6.50;;;1.93;;
5458;SDS011;2752;49.992;8.422;2023-02-01T10:42:46;12.93;;;3.00;;
5458;SDS011;2752;49.992;8.422;2023-02-01T10:45:14;11.40;;;3.03;;
5458;SDS011;2752;49.992;8.422;2023-02-01T10:47:47;22.73;;;1.83;;
5458;SDS011;2752;49.992;8.422;2023-02-01T10:50:17;5.00;;;1.67;;
5458;SDS011;2752;49.992;8.422;2023-02-01T10:52:56;10.00;;;2.27;;
5458;SDS011;2752;49.992;8.422;2023-02-01T10:55:33;23.33;;;3.70;;
5458;SDS011;2752;49.992;8.422;2023-02-01T10:58:03;11.37;;;2.13;;
5458;SDS011;2752;49.992;8.422;2023-02-01T11:00:41;8.17;;;1.80;;
5458;SDS011;2752;49.992;8.422;2023-02-01T11:03:32;8.83;;;2.70;;
5458;SDS011;2752;49.992;8.422;2023-02-01T11:06:00;5.67;;;1.73;;
5458;SDS011;2752;49.992;8.422;2023-02-01T11:08:28;13.53;;;2.90;;
5458;SDS011;2752;49.992;8.422;2023-02-01T11:10:57;6.00;;;1.53;;
5458;SDS011;2752;49.992;8.422;2023-02-01T11:13:30;14.43;;;2.43;;
5458;SDS011;2752;49.992;8.422;2023-02-01T11:16:01;12.03;;;1.83;;
5458;SDS011;2752;49.992;8.422;2023-02-01T11:18:32;15.73;;;3.23;;
5458;SDS011;2752;49.992;8.422;2023-02-01T11:21:02;10.90;;;3.10;;
5458;SDS011;2752;49.992;8.422;2023-02-01T11:23:32;8.23;;;1.63;;
5458;SDS011;2752;49.992;8.422;2023-02-01T11:26:01;11.23;;;1.73;;
5458;SDS011;2752;49.992;8.422;2023-02-01T11:28:37;17.00;;;3.63;;
5458;SDS011;2752;49.992;8.422;2023-02-01T11:31:07;9.10;;;1.83;;
5458;SDS011;2752;49.992;8.422;2023-02-01T11:33:39;11.10;;;2.23;;
5458;SDS011;2752;49.992;8.422;2023-02-01T11:36:14;10.50;;;2.40;;
5458;SDS011;2752;49.992;8.422;2023-02-01T11:38:45;14.80;;;2.30;;
5458;SDS011;2752;49.992;8.422;2023-02-01T11:41:20;12.57;;;2.60;;
5458;SDS011;2752;49.992;8.422;2023-02-01T11:43:53;5.97;;;1.40;;
5458;SDS011;2752;49.992;8.422;2023-02-01T11:46:24;12.23;;;2.43;;
5458;SDS011;2752;49.992;8.422;2023-02-01T11:48:57;7.70;;;2.03;;
5458;SDS011;2752;49.992;8.422;2023-02-01T11:51:46;22.20;;;3.60;;
5458;SDS011;2752;49.992;8.422;2023-02-01T11:54:24;14.73;;;2.43;;
5458;SDS011;2752;49.992;8.422;2023-02-01T11:57:13;16.40;;;2.97;;
5458;SDS011;2752;49.992;8.422;2023-02-01T11:59:57;11.43;;;2.70;;
5458;SDS011;2752;49.992;8.422;2023-02-01T12:02:45;9.40;;;3.00;;
5458;SDS011;2752;49.992;8.422;2023-02-01T12:05:31;7.40;;;1.27;;
5458;SDS011;2752;49.992;8.422;2023-02-01T12:08:12;7.87;;;1.80;;
5458;SDS011;2752;49.992;8.422;2023-02-01T12:11:02;15.23;;;1.97;;
5458;SDS011;2752;49.992;8.422;2023-02-01T12:13:46;15.63;;;2.17;;
5458;SDS011;2752;49.992;8.422;2023-02-01T12:16:21;16.30;;;1.87;;
5458;SDS011;2752;49.992;8.422;2023-02-01T12:19:04;7.80;;;1.50;;
5458;SDS011;2752;49.992;8.422;2023-02-01T12:21:54;17.63;;;1.93;;
5458;SDS011;2752;49.992;8.422;2023-02-01T12:24:39;5.90;;;1.73;;
5458;SDS011;2752;49.992;8.422;2023-02-01T12:30:39;27.10;;;2.73;;
5458;SDS011;2752;49.992;8.422;2023-02-01T12:33:21;13.20;;;2.60;;
5458;SDS011;2752;49.992;8.422;2023-02-01T12:38:52;11.13;;;2.50;;
5458;SDS011;2752;49.992;8.422;2023-02-01T12:41:26;5.70;;;1.70;;
5458;SDS011;2752;49.992;8.422;2023-02-01T12:44:07;12.13;;;2.17;;
5458;SDS011;2752;49.992;8.422;2023-02-01T12:46:39;8.17;;;1.57;;
5458;SDS011;2752;49.992;8.422;2023-02-01T12:49:11;15.17;;;2.10;;
5458;SDS011;2752;49.992;8.422;2023-02-01T12:51:43;8.00;;;2.50;;
5458;SDS011;2752;49.992;8.422;2023-02-01T12:54:15;12.67;;;2.33;;
5458;SDS011;2752;49.992;8.422;2023-02-01T12:56:47;6.27;;;1.20;;
5458;SDS011;2752;49.992;8.422;2023-02-01T12:59:19;13.67;;;1.70;;
5458;SDS011;2752;49.992;8.422;2023-02-01T13:01:52;8.20;;;1.70;;
5458;SDS011;2752;49.992;8.422;2023-02-01T13:04:26;10.43;;;1.70;;
5458;SDS011;2752;49.992;8.422;2023-02-01T13:06:59;8.97;;;1.10;;
5458;SDS011;2752;49.992;8.422;2023-02-01T13:09:34;10.63;;;2.57;;
5458;SDS011;2752;49.992;8.422;2023-02-01T13:12:06;4.23;;;0.97;;
5458;SDS011;2752;49.992;8.422;2023-02-01T13:14:38;19.37;;;3.23;;
5458;SDS011;2752;49.992;8.422;2023-02-01T13:17:12;14.63;;;1.83;;
5458;SDS011;2752;49.992;8.422;2023-02-01T13:19:43;11.40;;;6.73;;
5458;SDS011;2752;49.992;8.422;2023-02-01T13:22:15;9.37;;;1.67;;
5458;SDS011;2752;49.992;8.422;2023-02-01T13:24:49;12.90;;;2.07;;
5458;SDS011;2752;49.992;8.422;2023-02-01T13:27:21;3.43;;;1.23;;
5458;SDS011;2752;49.992;8.422;2023-02-01T13:29:52;12.87;;;2.17;;
5458;SDS011;2752;49.992;8.422;2023-02-01T13:35:46;6.80;;;1.60;;
5458;SDS011;2752;49.992;8.422;2023-02-01T13:38:33;7.73;;;1.67;;
5458;SDS011;2752;49.992;8.422;2023-02-01T13:41:15;11.20;;;2.13;;
5458;SDS011;2752;49.992;8.422;2023-02-01T13:43:54;14.37;;;2.20;;
5458;SDS011;2752;49.992;8.422;2023-02-01T13:46:24;2.90;;;1.50;;
5458;SDS011;2752;49.992;8.422;2023-02-01T13:48:53;10.00;;;1.77;;
5458;SDS011;2752;49.992;8.422;2023-02-01T13:51:32;2.77;;;1.57;;
5458;SDS011;2752;49.992;8.422;2023-02-01T13:54:07;11.60;;;2.40;;
5458;SDS011;2752;49.992;8.422;2023-02-01T13:56:50;7.90;;;1.90;;
5458;SDS011;2752;49.992;8.422;2023-02-01T13:59:35;4.83;;;1.97;;
5458;SDS011;2752;49.992;8.422;2023-02-01T14:08:44;4.77;;;1.40;;
5458;SDS011;2752;49.992;8.422;2023-02-01T14:11:35;6.33;;;1.77;;
5458;SDS011;2752;49.992;8.422;2023-02-01T14:23:15;3.80;;;1.07;;
5458;SDS011;2752;49.992;8.422;2023-02-01T14:25:47;9.00;;;1.83;;
5458;SDS011;2752;49.992;8.422;2023-02-01T14:28:28;3.40;;;1.67;;
5458;SDS011;2752;49.992;8.422;2023-02-01T14:31:06;4.27;;;2.30;;
5458;SDS011;2752;49.992;8.422;2023-02-01T14:33:42;8.07;;;1.90;;
5458;SDS011;2752;49.992;8.422;2023-02-01T14:36:10;14.40;;;2.30;;
5458;SDS011;2752;49.992;8.422;2023-02-01T14:38:39;5.70;;;1.43;;
5458;SDS011;2752;49.992;8.422;2023-02-01T14:41:23;3.03;;;1.13;;
5458;SDS011;2752;49.992;8.422;2023-02-01T14:47:07;13.70;;;2.70;;
5458;SDS011;2752;49.992;8.422;2023-02-01T14:49:56;8.23;;;2.03;;
5458;SDS011;2752;49.992;8.422;2023-02-01T14:52:39;14.00;;;2.67;;
5458;SDS011;2752;49.992;8.422;2023-02-01T14:55:11;15.57;;;2.37;;
5458;SDS011;2752;49.992;8.422;2023-02-01T14:57:45;17.03;;;3.50;;
5458;SDS011;2752;49.992;8.422;2023-02-01T15:00:21;5.90;;;1.13;;
5458;SDS011;2752;49.992;8.422;2023-02-01T15:02:52;6.07;;;2.03;;
5458;SDS011;2752;49.992;8.422;2023-02-01T15:05:30;9.63;;;2.17;;
5458;SDS011;2752;49.992;8.422;2023-02-01T15:08:07;16.60;;;2.37;;
5458;SDS011;2752;49.992;8.422;2023-02-01T15:10:43;10.70;;;1.40;;
5458;SDS011;2752;49.992;8.422;2023-02-01T15:13:19;8.47;;;2.13;;
5458;SDS011;2752;49.992;8.422;2023-02-01T15:16:04;10.30;;;1.60;;
5458;SDS011;2752;49.992;8.422;2023-02-01T15:18:37;6.53;;;1.43;;
5458;SDS011;2752;49.992;8.422;2023-02-01T15:21:05;7.00;;;1.60;;
5458;SDS011;2752;49.992;8.422;2023-02-01T15:23:35;10.83;;;4.43;;
5458;SDS011;2752;49.992;8.422;2023-02-01T15:26:02;17.57;;;4.17;;
5458;SDS011;2752;49.992;8.422;2023-02-01T15:28:30;26.47;;;10.33;;
5458;SDS011;2752;49.992;8.422;2023-02-01T15:30:57;7.90;;;1.67;;
5458;SDS011;2752;49.992;8.422;2023-02-01T15:33:26;3.80;;;1.17;;
5458;SDS011;2752;49.992;8.422;2023-02-01T15:35:55;13.00;;;1.80;;
5458;SDS011;2752;49.992;8.422;2023-02-01T15:38:36;27.03;;;6.70;;
5458;SDS011;2752;49.992;8.422;2023-02-01T15:41:07;14.00;;;7.20;;
5458;SDS011;2752;49.992;8.422;2023-02-01T15:43:39;9.10;;;2.03;;
5458;SDS011;2752;49.992;8.422;2023-02-01T15:46:09;5.20;;;2.10;;
5458;SDS011;2752;49.992;8.422;2023-02-01T15:48:39;7.07;;;1.60;;
5458;SDS011;2752;49.992;8.422;2023-02-01T15:51:15;4.43;;;1.47;;
5458;SDS011;2752;49.992;8.422;2023-02-01T15:53:45;7.23;;;1.37;;
5458;SDS011;2752;49.992;8.422;2023-02-01T15:56:16;9.13;;;2.23;;
5458;SDS011;2752;49.992;8.422;2023-02-01T15:58:50;11.13;;;2.27;;
5458;SDS011;2752;49.992;8.422;2023-02-01T16:01:20;18.30;;;3.37;;
5458;SDS011;2752;49.992;8.422;2023-02-01T16:03:48;13.83;;;2.43;;